Edon, Ohio
Current Conditions -  °F | °C
As of 5:35 AM on Thursday 29 Jan 2015 (Local Time) from KANQ Reporting Station
Broken Clouds Broken Clouds  
Wind Chill: 18°   Ceiling: 12000
Heat Index: 28°   Visibility: 10mi
Dew Point: 25°   Wind: 12mph
Humidity: 86%   Direction: 170°S
Pressure: 29.8"   Gusts: NA
Location:  41.56°N, 84.77°W
Report Text: KANQ 291035Z AUTO 17010KT 10SM FEW060 SCT075 BKN120 M02/M04 A2980 RMK
Loading
Personal Weather Stations






























Interactive Weather Map New forecast layout! Learn more

10-Day Weather Forecast

Advertisements
Track Severe Weather on mobile